createdAt,value
2019-02-05T00:10:06.671Z,70.80
2019-02-05T00:13:17.650Z,72.10
2019-02-05T00:16:56.335Z,70.50
2019-02-05T00:23:47.032Z,71.40
2019-02-05T00:31:12.060Z,72.30
2019-02-05T00:34:40.352Z,73.50
2019-02-05T00:56:17.622Z,73.30
2019-02-05T01:22:10.013Z,74.10
2019-02-05T01:25:33.608Z,76.80
2019-02-05T01:31:57.237Z,77.70
2019-02-05T01:34:28.959Z,78.80
2019-02-05T01:37:00.910Z,77.50
2019-02-05T01:39:34.704Z,74.30
2019-02-05T01:42:05.387Z,73.40
2019-02-05T01:44:47.676Z,75.80
2019-02-05T01:47:18.348Z,74.00
2019-02-05T01:49:49.551Z,76.20
2019-02-05T01:52:24.420Z,74.70
2019-02-05T01:55:01.588Z,75.90
2019-02-05T01:57:35.707Z,77.70
2019-02-05T02:00:08.643Z,81.30
2019-02-05T02:02:41.768Z,80.70
2019-02-05T02:05:12.858Z,81.50
2019-02-05T02:07:46.863Z,82.90
2019-02-05T02:10:20.835Z,84.80
2019-02-05T02:12:53.286Z,82.40
2019-02-05T02:15:25.177Z,84.40
2019-02-05T02:17:57.613Z,84.90
2019-02-05T02:20:27.987Z,82.90
2019-02-05T02:23:00.817Z,82.70
2019-02-05T02:25:32.528Z,84.00
2019-02-05T02:28:04.632Z,83.80
2019-02-05T02:30:41.923Z,84.60
2019-02-05T02:33:12.272Z,85.00
2019-02-05T02:35:42.634Z,86.40
2019-02-05T02:38:14.514Z,84.50
2019-02-05T02:40:44.911Z,84.40
2019-02-05T02:43:18.726Z,85.00
2019-02-05T02:45:48.948Z,86.20
2019-02-05T02:48:22.176Z,85.20
2019-02-05T02:53:39.972Z,86.20
2019-02-05T02:56:11.742Z,85.40
2019-02-05T02:58:42.930Z,84.70
2019-02-05T03:01:13.542Z,83.70
2019-02-05T03:03:43.751Z,85.10
2019-02-05T03:06:15.029Z,84.90
2019-02-05T03:08:46.787Z,85.50
2019-02-05T03:11:18.377Z,84.20
2019-02-05T03:13:48.698Z,84.10
2019-02-05T03:16:20.594Z,85.20
2019-02-05T03:18:53.059Z,85.70
2019-02-05T03:21:24.071Z,86.20
2019-02-05T03:23:54.454Z,85.00
2019-02-05T03:26:29.420Z,87.20
2019-02-05T03:29:02.197Z,86.80
2019-02-05T03:31:34.823Z,88.00
2019-02-05T03:34:05.796Z,88.00
2019-02-05T03:36:39.399Z,85.90
2019-02-05T03:39:13.261Z,85.10
2019-02-05T03:41:46.049Z,84.80
2019-02-05T03:44:17.556Z,84.80
2019-02-05T03:46:48.536Z,85.90
2019-02-05T03:49:19.786Z,84.90
2019-02-05T03:52:31.842Z,87.00
2019-02-05T03:56:00.091Z,86.50
2019-02-05T03:59:08.401Z,85.70
2019-02-05T04:02:15.084Z,88.10
2019-02-05T04:05:21.499Z,88.80
2019-02-05T04:08:34.809Z,82.80
2019-02-05T04:11:54.302Z,81.90
2019-02-05T04:18:32.932Z,76.80
2019-02-05T04:22:02.656Z,82.00
2019-02-05T04:25:24.121Z,84.20
2019-02-05T04:28:32.246Z,88.30
2019-02-05T04:31:13.007Z,89.10
2019-02-05T04:34:49.603Z,87.40
2019-02-05T04:37:57.400Z,90.20
2019-02-05T04:41:03.810Z,89.40
2019-02-05T04:44:11.316Z,89.40
2019-02-05T04:47:19.516Z,88.20
2019-02-05T04:50:11.872Z,87.90
2019-02-05T04:53:35.236Z,86.60
2019-02-05T04:56:57.824Z,86.70
2019-02-05T05:00:12.133Z,84.40
2019-02-05T05:03:14.890Z,82.50
2019-02-05T05:06:18.948Z,82.40
2019-02-05T05:09:04.571Z,79.60
2019-02-05T05:11:37.136Z,78.50
2019-02-05T05:14:08.719Z,80.80
2019-02-05T05:16:38.988Z,82.60
2019-02-05T05:19:09.869Z,82.30
2019-02-05T05:21:40.528Z,82.20
2019-02-05T05:24:10.721Z,81.20
2019-02-05T05:30:29.987Z,83.00
2019-02-05T05:33:02.236Z,83.20
2019-02-05T05:35:43.372Z,80.20
2019-02-05T05:38:05.977Z,80.40
2019-02-05T05:40:38.684Z,81.20
2019-02-05T05:43:09.615Z,81.20
2019-02-05T05:45:39.948Z,81.20
2019-02-05T05:48:12.501Z,78.20
2019-02-05T05:50:43.488Z,78.50
2019-02-05T05:53:15.205Z,79.40
2019-02-05T05:55:45.548Z,81.70
2019-02-05T05:58:23.042Z,81.20
2019-02-05T06:00:51.477Z,80.60
2019-02-05T06:03:22.665Z,79.90
2019-02-05T06:05:53.768Z,78.00
2019-02-05T06:08:30.711Z,77.70
2019-02-05T06:11:01.033Z,78.30
2019-02-05T06:13:31.154Z,78.90
2019-02-05T06:16:01.381Z,79.40
2019-02-05T06:18:31.671Z,79.20
2019-02-05T06:21:01.859Z,79.50
2019-02-05T06:23:35.166Z,78.90
2019-02-05T06:26:06.927Z,78.50
2019-02-05T06:28:40.756Z,77.80
2019-02-05T06:31:10.982Z,78.40
2019-02-05T06:33:44.480Z,76.50
2019-02-05T06:36:14.701Z,77.10
2019-02-05T06:38:44.956Z,76.20
2019-02-05T06:41:15.137Z,76.60
2019-02-05T06:43:45.352Z,77.10
2019-02-05T06:46:15.525Z,77.60
2019-02-05T06:48:45.761Z,78.20
2019-02-05T06:51:15.954Z,78.00
2019-02-05T06:53:46.216Z,76.40
2019-02-05T06:56:35.497Z,77.20
2019-02-05T06:59:05.887Z,76.40
2019-02-05T07:01:36.114Z,75.10
2019-02-05T07:04:08.297Z,76.10
2019-02-05T07:06:38.875Z,76.10
2019-02-05T07:09:10.402Z,78.70
2019-02-05T07:11:41.476Z,78.60
2019-02-05T07:14:11.635Z,77.40
2019-02-05T07:16:41.955Z,75.20
2019-02-05T07:19:12.158Z,76.20
2019-02-05T07:21:42.895Z,76.30
2019-02-05T07:24:13.100Z,74.00
2019-02-05T07:26:43.424Z,75.00
2019-02-05T07:29:13.645Z,75.60
2019-02-05T07:31:46.351Z,73.20
2019-02-05T07:34:16.535Z,74.00
2019-02-05T07:36:47.414Z,76.50
2019-02-05T07:39:17.643Z,77.20
2019-02-05T07:41:47.813Z,76.60
2019-02-05T07:44:18.015Z,76.10
2019-02-05T07:46:48.273Z,77.90
2019-02-05T07:49:20.938Z,78.50
2019-02-05T07:51:51.174Z,81.30
2019-02-05T07:54:25.343Z,80.90
2019-02-05T07:56:56.046Z,77.80
2019-02-05T07:59:26.335Z,75.90
2019-02-05T08:01:56.906Z,77.60
2019-02-05T08:04:28.548Z,78.20
2019-02-05T08:07:01.198Z,80.00
2019-02-05T08:09:35.265Z,79.60
2019-02-05T08:12:05.834Z,79.80
2019-02-05T08:14:36.023Z,81.90
2019-02-05T08:17:07.164Z,81.40
2019-02-05T08:19:54.611Z,80.10
2019-02-05T08:22:24.756Z,82.10
2019-02-05T08:24:56.617Z,82.40
2019-02-05T08:27:30.344Z,84.40
2019-02-05T08:30:00.888Z,84.80
2019-02-05T08:32:33.448Z,86.30
2019-02-05T08:35:03.735Z,87.70
2019-02-05T08:37:34.076Z,86.90
2019-02-05T08:40:08.294Z,82.20
2019-02-05T08:42:38.984Z,83.00
2019-02-05T08:45:14.258Z,80.70
2019-02-05T08:47:43.498Z,77.20
2019-02-05T08:50:16.362Z,75.50
2019-02-05T08:52:46.677Z,74.50
2019-02-05T08:55:18.154Z,74.60
2019-02-05T08:57:48.955Z,73.80
2019-02-05T09:00:21.518Z,74.20
2019-02-05T09:02:52.155Z,67.60
2019-02-05T09:05:22.382Z,68.00
2019-02-05T09:07:52.715Z,68.40
2019-02-05T09:10:27.994Z,69.50
2019-02-05T09:12:58.187Z,65.30
2019-02-05T09:15:29.806Z,65.80
2019-02-05T09:18:00.379Z,62.90
2019-02-05T09:20:31.347Z,62.00
2019-02-05T09:23:01.571Z,60.20
2019-02-05T09:25:31.816Z,62.70
2019-02-05T09:28:02.472Z,61.00
2019-02-05T09:30:34.249Z,63.50
2019-02-05T09:33:07.365Z,63.10
2019-02-05T09:35:37.555Z,60.90
2019-02-05T09:38:07.755Z,61.40
2019-02-05T09:40:38.015Z,60.70
2019-02-05T09:43:08.910Z,58.20
2019-02-05T09:45:41.034Z,58.10
2019-02-05T09:48:11.240Z,56.80
2019-02-05T09:50:44.799Z,57.40
2019-02-05T09:53:14.523Z,55.50
2019-02-05T09:55:45.631Z,55.50
2019-02-05T09:58:16.136Z,55.00
2019-02-05T10:00:47.532Z,50.70
2019-02-05T10:03:18.220Z,51.80
2019-02-05T10:05:50.210Z,52.40
2019-02-05T10:08:21.145Z,52.20
2019-02-05T10:10:51.420Z,51.90
2019-02-05T10:13:23.017Z,50.60
2019-02-05T10:15:55.231Z,50.60
2019-02-05T10:18:25.856Z,47.30
2019-02-05T10:20:56.519Z,47.30
2019-02-05T10:23:26.907Z,47.70
2019-02-05T10:25:58.969Z,44.40
2019-02-05T10:28:30.921Z,43.00
2019-02-05T10:31:04.094Z,42.70
2019-02-05T10:33:37.357Z,42.50
2019-02-05T10:36:07.698Z,43.50
2019-02-05T10:38:37.949Z,42.20
2019-02-05T10:41:08.814Z,40.50
2019-02-05T10:43:39.000Z,39.90
2019-02-05T10:46:09.484Z,39.00
2019-02-05T10:48:39.894Z,37.50
2019-02-05T10:51:11.233Z,38.80
2019-02-05T10:53:41.550Z,40.00
2019-02-05T10:56:12.291Z,40.40
2019-02-05T10:58:42.452Z,40.60
2019-02-05T11:01:12.695Z,39.70
2019-02-05T11:03:44.721Z,39.40
2019-02-05T11:06:15.810Z,37.00
2019-02-05T11:08:46.456Z,33.80
2019-02-05T11:11:19.067Z,34.90
2019-02-05T11:13:50.663Z,36.00
2019-02-05T11:16:20.839Z,36.60
2019-02-05T11:18:51.575Z,35.40
2019-02-05T11:21:24.664Z,34.10
2019-02-05T11:23:55.899Z,34.50
2019-02-05T11:26:26.052Z,35.40
2019-02-05T11:28:56.323Z,34.50
2019-02-05T11:31:26.562Z,33.60
2019-02-05T11:33:57.831Z,33.10
2019-02-05T11:36:29.778Z,31.50
2019-02-05T11:39:00.408Z,31.60
2019-02-05T11:41:30.797Z,31.20
2019-02-05T11:44:01.658Z,31.50
2019-02-05T11:46:34.901Z,30.60
2019-02-05T11:49:06.401Z,31.10
2019-02-05T11:51:36.828Z,31.70
2019-02-05T11:54:09.411Z,31.30
2019-02-05T11:56:39.674Z,30.50
2019-02-05T11:59:11.657Z,29.30
2019-02-05T12:01:43.234Z,29.40
2019-02-05T12:04:15.617Z,28.50
2019-02-05T12:06:47.877Z,28.10
2019-02-05T12:09:32.958Z,26.60
2019-02-05T12:12:06.204Z,26.60
2019-02-05T12:14:39.678Z,27.10
2019-02-05T12:17:15.298Z,27.30
2019-02-05T12:19:45.896Z,26.30
2019-02-05T12:22:25.795Z,25.90
2019-02-05T12:25:13.175Z,24.50
2019-02-05T12:27:56.082Z,25.80
2019-02-05T12:30:44.211Z,24.40
2019-02-05T12:33:11.770Z,24.90
2019-02-05T12:35:44.352Z,24.40
2019-02-05T12:38:47.373Z,25.60
2019-02-05T12:41:19.864Z,25.40
2019-02-05T12:44:01.183Z,25.40
2019-02-05T12:46:33.976Z,25.50
2019-02-05T12:49:06.011Z,24.20
2019-02-05T12:51:37.155Z,24.10
2019-02-05T12:54:11.705Z,23.70
2019-02-05T12:56:59.056Z,23.30
2019-02-05T12:59:30.729Z,21.70
2019-02-05T13:02:01.751Z,24.20
2019-02-05T13:04:40.002Z,23.90
2019-02-05T13:07:10.213Z,23.40
2019-02-05T13:09:53.359Z,24.00
2019-02-05T13:12:29.780Z,24.90
2019-02-05T13:15:07.979Z,23.40
2019-02-05T13:17:42.870Z,23.80
2019-02-05T13:20:30.332Z,24.10
2019-02-05T13:23:12.920Z,24.70
2019-02-05T13:26:07.551Z,25.20
2019-02-05T13:28:50.370Z,26.00
2019-02-05T13:31:30.032Z,26.10
2019-02-05T13:34:11.427Z,25.10
2019-02-05T13:36:52.677Z,25.90
2019-02-05T13:39:49.541Z,24.20
2019-02-05T13:43:23.047Z,24.70
2019-02-05T13:46:14.492Z,23.80
2019-02-05T13:53:11.890Z,24.50
2019-02-05T14:08:47.377Z,22.40
2019-02-05T14:12:06.140Z,21.90
2019-02-05T14:15:19.107Z,21.50
2019-02-05T14:18:10.822Z,21.40
2019-02-05T14:23:51.674Z,19.60
2019-02-05T14:26:26.711Z,19.80
2019-02-05T14:32:41.179Z,18.70
2019-02-05T14:35:21.895Z,18.40
2019-02-05T14:38:03.182Z,16.40
2019-02-05T14:41:31.211Z,15.00
2019-02-05T14:44:08.729Z,13.50
2019-02-05T14:46:40.322Z,11.70
2019-02-05T14:49:10.947Z,11.70
2019-02-05T14:51:41.922Z,11.70
2019-02-05T14:56:53.108Z,11.80
2019-02-05T14:59:24.224Z,11.50
2019-02-05T15:01:55.060Z,10.00
2019-02-05T15:04:25.752Z,10.00
2019-02-05T15:06:57.595Z,9.30
2019-02-05T15:09:29.047Z,10.30
2019-02-05T15:12:04.082Z,9.70
2019-02-05T15:14:37.315Z,9.80
2019-02-05T15:17:07.475Z,9.10
2019-02-05T15:19:39.981Z,9.80
2019-02-05T15:22:12.395Z,10.30
2019-02-05T15:24:45.264Z,11.30
2019-02-05T15:27:16.387Z,12.00
2019-02-05T15:29:46.653Z,12.90
2019-02-05T15:32:53.133Z,13.70
2019-02-05T15:35:23.894Z,14.80
2019-02-05T15:37:56.542Z,16.10
2019-02-05T15:40:27.441Z,16.50
2019-02-05T15:42:58.344Z,17.70
2019-02-05T15:45:28.955Z,19.90
2019-02-05T15:47:59.389Z,22.10
2019-02-05T15:50:31.214Z,24.50
2019-02-05T15:53:01.452Z,26.40
2019-02-05T15:55:31.791Z,29.10
2019-02-05T15:58:03.942Z,29.40
2019-02-05T16:00:36.359Z,30.10
2019-02-05T16:03:10.684Z,31.20
2019-02-05T16:05:43.784Z,34.50
2019-02-05T16:08:14.399Z,34.70
2019-02-05T16:10:45.193Z,37.40
2019-02-05T16:13:21.869Z,38.70
2019-02-05T16:15:55.139Z,39.90
2019-02-05T16:18:26.856Z,42.20
2019-02-05T16:20:57.212Z,45.70
2019-02-05T16:23:28.789Z,47.50
2019-02-05T16:25:59.023Z,49.90
2019-02-05T16:28:33.493Z,50.40
2019-02-05T16:31:08.644Z,50.90
2019-02-05T16:33:39.031Z,50.40
2019-02-05T16:36:09.357Z,49.70
2019-02-05T16:38:41.899Z,48.90
2019-02-05T16:41:12.261Z,49.20
2019-02-05T16:43:42.793Z,51.20
2019-02-05T16:46:12.999Z,52.10
2019-02-05T16:48:43.343Z,53.80
2019-02-05T16:51:13.694Z,52.70
2019-02-05T16:53:44.056Z,56.40
2019-02-05T16:56:18.008Z,55.60
2019-02-05T16:58:55.368Z,56.80
2019-02-05T17:01:25.687Z,56.70
2019-02-05T17:03:56.043Z,56.70
2019-02-05T17:06:26.685Z,57.20
2019-02-05T17:08:57.034Z,56.00
2019-02-05T17:11:27.668Z,56.60
2019-02-05T17:13:59.388Z,57.90
2019-02-05T17:17:51.400Z,56.60
2019-02-05T17:20:33.180Z,57.00
2019-02-05T17:23:23.820Z,59.00
2019-02-05T17:26:03.468Z,58.20
2019-02-05T17:28:49.401Z,59.30
2019-02-05T17:31:56.518Z,59.90
2019-02-05T17:34:41.653Z,59.90
2019-02-05T17:37:26.858Z,59.50
2019-02-05T17:40:09.861Z,58.20
2019-02-05T17:50:09.936Z,60.80
2019-02-05T17:52:47.379Z,61.50
2019-02-05T17:55:21.194Z,61.10
2019-02-05T17:57:53.732Z,61.30
2019-02-05T18:00:29.594Z,61.30
2019-02-05T18:02:59.957Z,61.80
2019-02-05T18:05:34.871Z,61.50
2019-02-05T18:08:07.601Z,59.00
2019-02-05T18:11:20.458Z,58.90
2019-02-05T18:14:24.448Z,59.40
2019-02-05T18:17:51.416Z,61.90
2019-02-05T18:20:33.181Z,61.90
2019-02-05T18:23:22.585Z,62.70
2019-02-05T18:26:11.867Z,63.30
2019-02-05T18:28:40.470Z,64.30
2019-02-05T18:31:22.887Z,63.10
2019-02-05T18:34:36.849Z,63.20
2019-02-05T18:36:58.966Z,62.90
2019-02-05T18:39:50.765Z,63.50
2019-02-05T18:42:36.041Z,62.30
2019-02-05T18:49:10.755Z,65.00
2019-02-05T18:51:09.817Z,62.50
2019-02-05T18:57:14.726Z,63.70
2019-02-05T18:59:58.699Z,65.40
2019-02-05T19:03:19.311Z,65.50
2019-02-05T19:05:53.916Z,64.50
2019-02-05T19:08:34.931Z,63.20
2019-02-05T19:11:18.039Z,64.80
2019-02-05T19:13:51.542Z,64.70
2019-02-05T19:16:23.747Z,66.20
2019-02-05T19:18:53.961Z,65.90
2019-02-05T19:21:46.326Z,66.60
2019-02-05T19:24:36.956Z,65.20
2019-02-05T19:27:09.756Z,64.10
2019-02-05T19:29:42.595Z,63.70
2019-02-05T19:32:16.337Z,64.60
2019-02-05T19:34:51.323Z,64.70
2019-02-05T19:37:23.120Z,63.30
2019-02-05T19:39:57.152Z,62.80
2019-02-05T19:42:27.434Z,62.30
2019-02-05T19:45:25.576Z,63.00
2019-02-05T19:47:58.370Z,63.10
2019-02-05T19:51:09.958Z,66.00
2019-02-05T19:54:12.140Z,68.20
2019-02-05T19:56:44.847Z,69.60
2019-02-05T19:59:27.494Z,68.60
2019-02-05T20:02:21.904Z,67.10
2019-02-05T20:05:37.265Z,66.10
2019-02-05T20:08:26.756Z,66.60
2019-02-05T20:11:22.429Z,67.20
2019-02-05T20:14:13.303Z,68.00
2019-02-05T20:17:08.363Z,67.40
2019-02-05T20:19:58.383Z,68.60
2019-02-05T20:22:55.731Z,68.90
2019-02-05T20:26:34.501Z,71.60
2019-02-05T20:29:22.421Z,71.50
2019-02-05T20:35:12.114Z,73.30
2019-02-05T20:38:06.960Z,69.40
2019-02-05T20:40:45.588Z,71.10
2019-02-05T20:44:11.494Z,69.70
2019-02-05T20:50:34.316Z,69.90
2019-02-05T20:54:18.478Z,73.40
2019-02-05T20:56:43.298Z,69.40
2019-02-05T20:59:39.934Z,71.60
2019-02-05T21:02:11.373Z,72.60
2019-02-05T21:04:48.584Z,76.30
2019-02-05T21:07:15.260Z,74.20
2019-02-05T21:09:45.478Z,73.20
2019-02-05T21:12:15.975Z,76.00
2019-02-05T21:14:46.699Z,75.70
2019-02-05T21:17:21.689Z,73.10
2019-02-05T21:19:56.506Z,73.90
2019-02-05T21:22:26.634Z,73.30
2019-02-05T21:24:57.805Z,73.30
2019-02-05T21:27:30.873Z,71.40
2019-02-05T21:30:11.136Z,70.50
2019-02-05T21:32:39.818Z,71.80
2019-02-05T21:35:12.025Z,73.30
2019-02-05T21:37:44.480Z,70.20
2019-02-05T21:40:17.599Z,71.30
2019-02-05T21:42:52.637Z,69.50
2019-02-05T21:45:24.315Z,72.50
2019-02-05T21:47:56.008Z,73.70
2019-02-05T21:50:30.020Z,75.00
2019-02-05T21:53:00.651Z,76.50
2019-02-05T21:55:30.931Z,75.70
2019-02-05T21:58:01.361Z,75.80
2019-02-05T22:00:32.760Z,75.90
2019-02-05T22:03:03.663Z,77.00
2019-02-05T22:05:34.120Z,75.10
2019-02-05T22:08:04.831Z,75.10
2019-02-05T22:10:35.292Z,76.30
2019-02-05T22:13:07.264Z,75.90
2019-02-05T22:15:40.216Z,75.00
2019-02-05T22:18:10.443Z,73.10
2019-02-05T22:20:40.924Z,72.90
2019-02-05T22:23:11.558Z,74.50
2019-02-05T22:25:45.111Z,75.50
2019-02-05T22:28:15.376Z,77.40
2019-02-05T22:30:46.617Z,77.40
2019-02-05T22:33:18.555Z,77.40
2019-02-05T22:35:48.747Z,78.20
2019-02-05T22:38:22.684Z,79.10
2019-02-05T22:40:54.692Z,76.30
2019-02-05T22:43:25.923Z,74.40
2019-02-05T22:45:56.130Z,73.80
2019-02-05T22:48:32.585Z,75.00
2019-02-05T22:51:04.888Z,74.80
2019-02-05T22:53:35.367Z,73.50
2019-02-05T22:56:05.695Z,73.40
2019-02-05T22:58:36.042Z,73.90
2019-02-05T23:01:28.257Z,78.20
2019-02-05T23:04:16.937Z,76.70
2019-02-05T23:07:06.712Z,73.70
2019-02-05T23:09:42.852Z,75.40
2019-02-05T23:12:28.818Z,74.90
2019-02-05T23:15:21.389Z,73.40
2019-02-05T23:17:51.833Z,74.20
2019-02-05T23:20:23.100Z,74.80
2019-02-05T23:22:53.553Z,75.00
2019-02-05T23:25:24.651Z,76.80
2019-02-05T23:27:54.940Z,76.70
2019-02-05T23:30:30.268Z,78.20
2019-02-05T23:33:00.721Z,76.40
2019-02-05T23:35:35.189Z,75.20
2019-02-05T23:38:05.493Z,74.90
2019-02-05T23:40:35.649Z,75.70
2019-02-05T23:43:07.218Z,76.90
2019-02-05T23:45:37.494Z,75.80
2019-02-05T23:48:07.925Z,75.50
2019-02-05T23:50:41.340Z,75.30
2019-02-05T23:53:11.623Z,75.30
2019-02-05T23:55:41.811Z,76.30
2019-02-05T23:58:11.967Z,77.60
